sensor_id;sensor_type;location;lat;lon;timestamp;P1;durP1;ratioP1;P2;durP2;ratioP2
65238;SDS011;51827;51.186;6.926;2022-08-19T00:00:17;8.38;;;5.30;;
65238;SDS011;51827;51.186;6.926;2022-08-19T00:01:17;7.68;;;5.20;;
65238;SDS011;51827;51.186;6.926;2022-08-19T00:02:18;7.37;;;4.97;;
65238;SDS011;51827;51.186;6.926;2022-08-19T00:03:18;8.00;;;4.57;;
65238;SDS011;51827;51.186;6.926;2022-08-19T00:04:23;11.15;;;5.30;;
65238;SDS011;51827;51.186;6.926;2022-08-19T00:05:26;8.45;;;5.43;;
65238;SDS011;51827;51.186;6.926;2022-08-19T00:06:29;7.53;;;5.05;;
65238;SDS011;51827;51.186;6.926;2022-08-19T00:07:30;9.85;;;4.78;;
65238;SDS011;51827;51.186;6.926;2022-08-19T00:08:30;9.77;;;4.97;;
65238;SDS011;51827;51.186;6.926;2022-08-19T00:09:31;7.13;;;4.80;;
65238;SDS011;51827;51.186;6.926;2022-08-19T00:10:31;7.40;;;4.88;;
65238;SDS011;51827;51.186;6.926;2022-08-19T00:11:34;7.97;;;5.22;;
65238;SDS011;51827;51.186;6.926;2022-08-19T00:12:35;9.50;;;5.03;;
65238;SDS011;51827;51.186;6.926;2022-08-19T00:13:36;6.40;;;4.68;;
65238;SDS011;51827;51.186;6.926;2022-08-19T00:14:36;9.50;;;4.87;;
65238;SDS011;51827;51.186;6.926;2022-08-19T00:15:38;7.60;;;5.25;;
65238;SDS011;51827;51.186;6.926;2022-08-19T00:16:38;14.07;;;5.43;;
65238;SDS011;51827;51.186;6.926;2022-08-19T00:17:40;6.93;;;4.60;;
65238;SDS011;51827;51.186;6.926;2022-08-19T00:18:43;8.05;;;4.70;;
65238;SDS011;51827;51.186;6.926;2022-08-19T00:19:43;8.83;;;4.83;;
65238;SDS011;51827;51.186;6.926;2022-08-19T00:20:44;9.37;;;4.97;;
65238;SDS011;51827;51.186;6.926;2022-08-19T00:21:44;8.23;;;4.80;;
65238;SDS011;51827;51.186;6.926;2022-08-19T00:22:45;7.27;;;4.77;;
65238;SDS011;51827;51.186;6.926;2022-08-19T00:23:46;10.57;;;4.72;;
65238;SDS011;51827;51.186;6.926;2022-08-19T00:24:49;6.22;;;4.40;;
65238;SDS011;51827;51.186;6.926;2022-08-19T00:25:49;8.33;;;4.60;;
65238;SDS011;51827;51.186;6.926;2022-08-19T00:26:50;8.73;;;5.10;;
65238;SDS011;51827;51.186;6.926;2022-08-19T00:28:51;8.37;;;4.80;;
65238;SDS011;51827;51.186;6.926;2022-08-19T00:29:51;11.97;;;5.20;;
65238;SDS011;51827;51.186;6.926;2022-08-19T00:30:54;8.90;;;5.37;;
65238;SDS011;51827;51.186;6.926;2022-08-19T00:31:54;7.63;;;4.88;;
65238;SDS011;51827;51.186;6.926;2022-08-19T00:32:55;18.43;;;4.77;;
65238;SDS011;51827;51.186;6.926;2022-08-19T00:33:55;9.77;;;4.78;;
65238;SDS011;51827;51.186;6.926;2022-08-19T00:34:55;7.10;;;4.23;;
65238;SDS011;51827;51.186;6.926;2022-08-19T00:35:56;7.00;;;4.72;;
65238;SDS011;51827;51.186;6.926;2022-08-19T00:36:59;11.90;;;5.07;;
65238;SDS011;51827;51.186;6.926;2022-08-19T00:38:02;6.95;;;4.68;;
65238;SDS011;51827;51.186;6.926;2022-08-19T00:39:03;8.53;;;4.73;;
65238;SDS011;51827;51.186;6.926;2022-08-19T00:41:06;9.60;;;4.80;;
65238;SDS011;51827;51.186;6.926;2022-08-19T00:42:07;6.68;;;4.57;;
65238;SDS011;51827;51.186;6.926;2022-08-19T00:43:08;7.77;;;4.70;;
65238;SDS011;51827;51.186;6.926;2022-08-19T00:45:12;7.15;;;4.55;;
65238;SDS011;51827;51.186;6.926;2022-08-19T00:46:15;5.93;;;4.30;;
65238;SDS011;51827;51.186;6.926;2022-08-19T00:47:24;6.90;;;5.03;;
65238;SDS011;51827;51.186;6.926;2022-08-19T00:48:27;9.10;;;4.78;;
65238;SDS011;51827;51.186;6.926;2022-08-19T00:49:29;6.47;;;5.15;;
65238;SDS011;51827;51.186;6.926;2022-08-19T00:50:34;7.72;;;4.75;;
65238;SDS011;51827;51.186;6.926;2022-08-19T00:51:34;8.07;;;4.85;;
65238;SDS011;51827;51.186;6.926;2022-08-19T00:52:36;9.63;;;5.00;;
65238;SDS011;51827;51.186;6.926;2022-08-19T00:53:42;9.98;;;5.38;;
65238;SDS011;51827;51.186;6.926;2022-08-19T00:54:46;8.75;;;4.60;;
65238;SDS011;51827;51.186;6.926;2022-08-19T00:55:48;6.88;;;5.03;;
65238;SDS011;51827;51.186;6.926;2022-08-19T00:56:51;5.63;;;4.60;;
65238;SDS011;51827;51.186;6.926;2022-08-19T00:57:52;6.37;;;4.77;;
65238;SDS011;51827;51.186;6.926;2022-08-19T00:58:56;6.22;;;4.22;;
65238;SDS011;51827;51.186;6.926;2022-08-19T00:59:58;6.13;;;4.40;;
65238;SDS011;51827;51.186;6.926;2022-08-19T01:01:00;7.38;;;4.90;;
65238;SDS011;51827;51.186;6.926;2022-08-19T01:02:01;6.82;;;4.82;;
65238;SDS011;51827;51.186;6.926;2022-08-19T01:03:03;6.03;;;4.60;;
65238;SDS011;51827;51.186;6.926;2022-08-19T01:04:05;7.03;;;4.68;;
65238;SDS011;51827;51.186;6.926;2022-08-19T01:05:08;9.63;;;5.32;;
65238;SDS011;51827;51.186;6.926;2022-08-19T01:06:11;7.80;;;4.80;;
65238;SDS011;51827;51.186;6.926;2022-08-19T01:07:11;7.93;;;5.07;;
65238;SDS011;51827;51.186;6.926;2022-08-19T01:08:15;6.03;;;4.63;;
65238;SDS011;51827;51.186;6.926;2022-08-19T01:09:16;7.38;;;5.20;;
65238;SDS011;51827;51.186;6.926;2022-08-19T01:10:19;5.53;;;4.67;;
65238;SDS011;51827;51.186;6.926;2022-08-19T01:11:23;7.22;;;5.15;;
65238;SDS011;51827;51.186;6.926;2022-08-19T01:12:23;6.43;;;4.45;;
65238;SDS011;51827;51.186;6.926;2022-08-19T01:13:26;8.40;;;4.88;;
65238;SDS011;51827;51.186;6.926;2022-08-19T01:14:29;9.70;;;4.85;;
65238;SDS011;51827;51.186;6.926;2022-08-19T01:16:32;5.93;;;4.65;;
65238;SDS011;51827;51.186;6.926;2022-08-19T01:17:34;6.90;;;4.70;;
65238;SDS011;51827;51.186;6.926;2022-08-19T01:18:38;8.27;;;5.28;;
65238;SDS011;51827;51.186;6.926;2022-08-19T01:19:41;6.53;;;4.50;;
65238;SDS011;51827;51.186;6.926;2022-08-19T01:20:43;7.95;;;4.57;;
65238;SDS011;51827;51.186;6.926;2022-08-19T01:21:49;6.93;;;4.90;;
65238;SDS011;51827;51.186;6.926;2022-08-19T01:23:12;6.45;;;4.70;;
65238;SDS011;51827;51.186;6.926;2022-08-19T01:24:13;5.82;;;4.63;;
65238;SDS011;51827;51.186;6.926;2022-08-19T01:25:15;7.47;;;4.83;;
65238;SDS011;51827;51.186;6.926;2022-08-19T01:26:19;7.20;;;5.15;;
65238;SDS011;51827;51.186;6.926;2022-08-19T01:27:21;8.68;;;4.50;;
65238;SDS011;51827;51.186;6.926;2022-08-19T01:28:26;9.32;;;5.03;;
65238;SDS011;51827;51.186;6.926;2022-08-19T01:29:29;7.93;;;5.00;;
65238;SDS011;51827;51.186;6.926;2022-08-19T01:30:31;6.15;;;4.88;;
65238;SDS011;51827;51.186;6.926;2022-08-19T01:31:34;6.75;;;4.85;;
65238;SDS011;51827;51.186;6.926;2022-08-19T01:32:34;6.32;;;4.80;;
65238;SDS011;51827;51.186;6.926;2022-08-19T01:33:35;6.53;;;4.70;;
65238;SDS011;51827;51.186;6.926;2022-08-19T01:34:35;5.17;;;4.43;;
65238;SDS011;51827;51.186;6.926;2022-08-19T01:35:35;9.50;;;5.33;;
65238;SDS011;51827;51.186;6.926;2022-08-19T01:36:40;7.78;;;5.30;;
65238;SDS011;51827;51.186;6.926;2022-08-19T01:37:53;9.55;;;4.57;;
65238;SDS011;51827;51.186;6.926;2022-08-19T01:38:56;6.70;;;4.85;;
65238;SDS011;51827;51.186;6.926;2022-08-19T01:40:57;7.47;;;4.67;;
65238;SDS011;51827;51.186;6.926;2022-08-19T01:41:58;6.53;;;4.50;;
65238;SDS011;51827;51.186;6.926;2022-08-19T01:42:58;6.33;;;4.70;;
65238;SDS011;51827;51.186;6.926;2022-08-19T01:44:11;7.63;;;5.05;;
65238;SDS011;51827;51.186;6.926;2022-08-19T01:45:11;8.82;;;4.80;;
65238;SDS011;51827;51.186;6.926;2022-08-19T01:46:11;9.23;;;5.00;;
65238;SDS011;51827;51.186;6.926;2022-08-19T01:47:12;6.60;;;4.87;;
65238;SDS011;51827;51.186;6.926;2022-08-19T01:48:12;6.93;;;4.50;;
65238;SDS011;51827;51.186;6.926;2022-08-19T01:50:15;8.13;;;4.70;;
65238;SDS011;51827;51.186;6.926;2022-08-19T01:51:15;6.65;;;4.60;;
65238;SDS011;51827;51.186;6.926;2022-08-19T01:52:16;6.93;;;4.68;;
65238;SDS011;51827;51.186;6.926;2022-08-19T01:53:19;6.72;;;4.60;;
65238;SDS011;51827;51.186;6.926;2022-08-19T01:54:20;6.27;;;4.40;;
65238;SDS011;51827;51.186;6.926;2022-08-19T01:55:22;7.13;;;4.90;;
65238;SDS011;51827;51.186;6.926;2022-08-19T01:56:23;7.88;;;4.30;;
65238;SDS011;51827;51.186;6.926;2022-08-19T01:57:23;7.50;;;5.05;;
65238;SDS011;51827;51.186;6.926;2022-08-19T01:58:24;7.97;;;4.97;;
65238;SDS011;51827;51.186;6.926;2022-08-19T01:59:29;7.35;;;4.70;;
65238;SDS011;51827;51.186;6.926;2022-08-19T02:00:31;8.23;;;4.65;;
65238;SDS011;51827;51.186;6.926;2022-08-19T02:01:34;8.63;;;4.82;;
65238;SDS011;51827;51.186;6.926;2022-08-19T02:02:35;6.30;;;4.60;;
65238;SDS011;51827;51.186;6.926;2022-08-19T02:03:38;9.35;;;5.28;;
65238;SDS011;51827;51.186;6.926;2022-08-19T02:04:38;5.90;;;4.30;;
65238;SDS011;51827;51.186;6.926;2022-08-19T02:05:39;7.80;;;4.40;;
65238;SDS011;51827;51.186;6.926;2022-08-19T02:06:40;6.30;;;4.75;;
65238;SDS011;51827;51.186;6.926;2022-08-19T02:07:40;7.73;;;4.83;;
65238;SDS011;51827;51.186;6.926;2022-08-19T02:08:41;5.93;;;4.70;;
65238;SDS011;51827;51.186;6.926;2022-08-19T02:09:41;7.23;;;5.17;;
65238;SDS011;51827;51.186;6.926;2022-08-19T02:10:42;6.63;;;4.63;;
65238;SDS011;51827;51.186;6.926;2022-08-19T02:11:43;6.13;;;4.82;;
65238;SDS011;51827;51.186;6.926;2022-08-19T02:12:43;6.73;;;4.63;;
65238;SDS011;51827;51.186;6.926;2022-08-19T02:13:44;6.13;;;4.88;;
65238;SDS011;51827;51.186;6.926;2022-08-19T02:14:44;6.97;;;4.47;;
65238;SDS011;51827;51.186;6.926;2022-08-19T02:15:44;6.17;;;4.37;;
65238;SDS011;51827;51.186;6.926;2022-08-19T02:16:45;7.00;;;4.88;;
65238;SDS011;51827;51.186;6.926;2022-08-19T02:17:45;6.13;;;5.00;;
65238;SDS011;51827;51.186;6.926;2022-08-19T02:18:46;8.88;;;5.35;;
65238;SDS011;51827;51.186;6.926;2022-08-19T02:19:47;6.95;;;4.63;;
65238;SDS011;51827;51.186;6.926;2022-08-19T02:20:59;6.85;;;4.75;;
65238;SDS011;51827;51.186;6.926;2022-08-19T02:21:59;7.53;;;4.70;;
65238;SDS011;51827;51.186;6.926;2022-08-19T02:22:59;8.30;;;5.27;;
65238;SDS011;51827;51.186;6.926;2022-08-19T02:24:00;8.03;;;4.53;;
65238;SDS011;51827;51.186;6.926;2022-08-19T02:25:00;6.80;;;4.43;;
65238;SDS011;51827;51.186;6.926;2022-08-19T02:26:00;6.35;;;4.55;;
65238;SDS011;51827;51.186;6.926;2022-08-19T02:27:03;8.30;;;4.63;;
65238;SDS011;51827;51.186;6.926;2022-08-19T02:28:04;6.18;;;4.70;;
65238;SDS011;51827;51.186;6.926;2022-08-19T02:29:05;6.70;;;4.82;;
65238;SDS011;51827;51.186;6.926;2022-08-19T02:30:06;8.90;;;5.23;;
65238;SDS011;51827;51.186;6.926;2022-08-19T02:31:10;8.63;;;4.97;;
65238;SDS011;51827;51.186;6.926;2022-08-19T02:32:12;8.18;;;4.63;;
65238;SDS011;51827;51.186;6.926;2022-08-19T02:33:15;9.27;;;5.00;;
65238;SDS011;51827;51.186;6.926;2022-08-19T02:34:16;5.80;;;4.60;;
65238;SDS011;51827;51.186;6.926;2022-08-19T02:36:17;6.67;;;4.63;;
65238;SDS011;51827;51.186;6.926;2022-08-19T02:37:17;9.05;;;4.82;;
65238;SDS011;51827;51.186;6.926;2022-08-19T02:38:21;6.55;;;4.78;;
65238;SDS011;51827;51.186;6.926;2022-08-19T02:39:21;8.53;;;4.83;;
65238;SDS011;51827;51.186;6.926;2022-08-19T02:40:21;8.83;;;4.60;;
65238;SDS011;51827;51.186;6.926;2022-08-19T02:41:23;8.20;;;4.67;;
65238;SDS011;51827;51.186;6.926;2022-08-19T02:42:26;6.43;;;5.00;;
65238;SDS011;51827;51.186;6.926;2022-08-19T02:43:27;7.53;;;4.83;;
65238;SDS011;51827;51.186;6.926;2022-08-19T02:44:31;7.00;;;4.55;;
65238;SDS011;51827;51.186;6.926;2022-08-19T02:45:35;7.27;;;5.40;;
65238;SDS011;51827;51.186;6.926;2022-08-19T02:46:37;9.40;;;4.88;;
65238;SDS011;51827;51.186;6.926;2022-08-19T02:47:38;8.68;;;4.95;;
65238;SDS011;51827;51.186;6.926;2022-08-19T02:48:38;8.17;;;5.10;;
65238;SDS011;51827;51.186;6.926;2022-08-19T02:49:38;7.53;;;5.30;;
65238;SDS011;51827;51.186;6.926;2022-08-19T02:50:39;7.30;;;4.60;;
65238;SDS011;51827;51.186;6.926;2022-08-19T02:51:41;7.80;;;5.20;;
65238;SDS011;51827;51.186;6.926;2022-08-19T02:52:43;6.20;;;5.00;;
65238;SDS011;51827;51.186;6.926;2022-08-19T02:53:44;8.45;;;5.13;;
65238;SDS011;51827;51.186;6.926;2022-08-19T02:54:47;6.67;;;4.70;;
65238;SDS011;51827;51.186;6.926;2022-08-19T02:55:47;6.68;;;5.25;;
65238;SDS011;51827;51.186;6.926;2022-08-19T02:56:48;5.85;;;5.00;;
65238;SDS011;51827;51.186;6.926;2022-08-19T02:57:52;6.33;;;5.17;;
65238;SDS011;51827;51.186;6.926;2022-08-19T02:58:53;11.20;;;4.93;;
65238;SDS011;51827;51.186;6.926;2022-08-19T02:59:54;7.88;;;5.03;;
65238;SDS011;51827;51.186;6.926;2022-08-19T03:00:55;7.70;;;5.30;;
65238;SDS011;51827;51.186;6.926;2022-08-19T03:01:56;6.43;;;4.95;;
65238;SDS011;51827;51.186;6.926;2022-08-19T03:02:56;8.43;;;4.85;;
65238;SDS011;51827;51.186;6.926;2022-08-19T03:03:57;7.57;;;4.70;;
65238;SDS011;51827;51.186;6.926;2022-08-19T03:05:00;7.38;;;4.63;;
65238;SDS011;51827;51.186;6.926;2022-08-19T03:06:03;7.00;;;4.68;;
65238;SDS011;51827;51.186;6.926;2022-08-19T03:07:15;8.43;;;4.90;;
65238;SDS011;51827;51.186;6.926;2022-08-19T03:08:16;7.82;;;4.63;;
65238;SDS011;51827;51.186;6.926;2022-08-19T03:09:19;5.73;;;4.90;;
65238;SDS011;51827;51.186;6.926;2022-08-19T03:10:20;5.88;;;5.10;;
65238;SDS011;51827;51.186;6.926;2022-08-19T03:11:22;5.93;;;4.90;;
65238;SDS011;51827;51.186;6.926;2022-08-19T03:12:24;6.80;;;4.93;;
65238;SDS011;51827;51.186;6.926;2022-08-19T03:13:24;7.72;;;4.70;;
65238;SDS011;51827;51.186;6.926;2022-08-19T03:14:25;6.30;;;4.77;;
65238;SDS011;51827;51.186;6.926;2022-08-19T03:15:25;5.70;;;4.17;;
65238;SDS011;51827;51.186;6.926;2022-08-19T03:16:26;5.97;;;4.90;;
65238;SDS011;51827;51.186;6.926;2022-08-19T03:17:28;5.80;;;4.75;;
65238;SDS011;51827;51.186;6.926;2022-08-19T03:18:28;5.83;;;4.90;;
65238;SDS011;51827;51.186;6.926;2022-08-19T03:19:29;6.73;;;4.87;;
65238;SDS011;51827;51.186;6.926;2022-08-19T03:20:29;7.33;;;5.30;;
65238;SDS011;51827;51.186;6.926;2022-08-19T03:21:31;5.87;;;4.57;;
65238;SDS011;51827;51.186;6.926;2022-08-19T03:22:32;7.13;;;4.68;;
65238;SDS011;51827;51.186;6.926;2022-08-19T03:23:33;6.43;;;5.23;;
65238;SDS011;51827;51.186;6.926;2022-08-19T03:24:34;6.97;;;5.38;;
65238;SDS011;51827;51.186;6.926;2022-08-19T03:25:43;6.18;;;4.70;;
65238;SDS011;51827;51.186;6.926;2022-08-19T03:26:52;7.05;;;4.30;;
65238;SDS011;51827;51.186;6.926;2022-08-19T03:27:54;7.07;;;4.38;;
65238;SDS011;51827;51.186;6.926;2022-08-19T03:28:54;7.23;;;4.87;;
65238;SDS011;51827;51.186;6.926;2022-08-19T03:29:55;10.52;;;4.68;;
65238;SDS011;51827;51.186;6.926;2022-08-19T03:31:00;7.30;;;4.93;;
65238;SDS011;51827;51.186;6.926;2022-08-19T03:32:04;10.13;;;4.72;;
65238;SDS011;51827;51.186;6.926;2022-08-19T03:33:05;5.47;;;4.55;;
65238;SDS011;51827;51.186;6.926;2022-08-19T03:34:13;8.68;;;4.80;;
65238;SDS011;51827;51.186;6.926;2022-08-19T03:35:15;6.55;;;4.90;;
65238;SDS011;51827;51.186;6.926;2022-08-19T03:36:17;6.53;;;5.13;;
65238;SDS011;51827;51.186;6.926;2022-08-19T03:37:19;7.35;;;4.90;;
65238;SDS011;51827;51.186;6.926;2022-08-19T03:38:19;6.33;;;4.90;;
65238;SDS011;51827;51.186;6.926;2022-08-19T03:39:19;6.47;;;4.93;;
65238;SDS011;51827;51.186;6.926;2022-08-19T03:40:28;6.40;;;4.85;;
65238;SDS011;51827;51.186;6.926;2022-08-19T03:41:30;7.73;;;5.10;;
65238;SDS011;51827;51.186;6.926;2022-08-19T03:42:33;8.23;;;5.10;;
65238;SDS011;51827;51.186;6.926;2022-08-19T03:43:34;8.13;;;5.10;;
65238;SDS011;51827;51.186;6.926;2022-08-19T03:44:35;6.60;;;4.85;;
65238;SDS011;51827;51.186;6.926;2022-08-19T03:45:36;7.38;;;5.30;;
65238;SDS011;51827;51.186;6.926;2022-08-19T03:46:36;8.17;;;5.50;;
65238;SDS011;51827;51.186;6.926;2022-08-19T03:47:39;5.87;;;4.90;;
65238;SDS011;51827;51.186;6.926;2022-08-19T03:48:40;7.45;;;5.07;;
65238;SDS011;51827;51.186;6.926;2022-08-19T03:49:41;7.07;;;4.78;;
65238;SDS011;51827;51.186;6.926;2022-08-19T03:50:47;8.13;;;4.70;;
65238;SDS011;51827;51.186;6.926;2022-08-19T03:51:48;6.93;;;5.10;;
65238;SDS011;51827;51.186;6.926;2022-08-19T03:52:49;6.32;;;4.85;;
65238;SDS011;51827;51.186;6.926;2022-08-19T03:53:51;10.77;;;4.85;;
65238;SDS011;51827;51.186;6.926;2022-08-19T03:54:52;7.47;;;5.20;;
65238;SDS011;51827;51.186;6.926;2022-08-19T03:55:53;9.03;;;5.07;;
65238;SDS011;51827;51.186;6.926;2022-08-19T03:56:58;7.05;;;4.57;;
65238;SDS011;51827;51.186;6.926;2022-08-19T03:57:58;7.57;;;5.10;;
65238;SDS011;51827;51.186;6.926;2022-08-19T03:58:59;6.93;;;4.70;;
65238;SDS011;51827;51.186;6.926;2022-08-19T03:59:59;6.70;;;4.90;;
65238;SDS011;51827;51.186;6.926;2022-08-19T04:00:59;7.97;;;5.32;;
65238;SDS011;51827;51.186;6.926;2022-08-19T04:02:01;6.57;;;4.97;;
65238;SDS011;51827;51.186;6.926;2022-08-19T04:03:06;6.90;;;4.85;;
65238;SDS011;51827;51.186;6.926;2022-08-19T04:04:06;11.33;;;5.10;;
65238;SDS011;51827;51.186;6.926;2022-08-19T04:05:07;7.40;;;4.93;;
65238;SDS011;51827;51.186;6.926;2022-08-19T04:06:17;7.43;;;4.97;;
65238;SDS011;51827;51.186;6.926;2022-08-19T04:07:20;8.23;;;4.93;;
65238;SDS011;51827;51.186;6.926;2022-08-19T04:08:20;9.27;;;5.97;;
65238;SDS011;51827;51.186;6.926;2022-08-19T04:09:20;7.17;;;5.03;;
65238;SDS011;51827;51.186;6.926;2022-08-19T04:10:21;10.50;;;5.37;;
65238;SDS011;51827;51.186;6.926;2022-08-19T04:11:28;7.50;;;5.32;;
65238;SDS011;51827;51.186;6.926;2022-08-19T04:12:30;7.10;;;4.97;;
65238;SDS011;51827;51.186;6.926;2022-08-19T04:13:33;9.32;;;5.38;;
65238;SDS011;51827;51.186;6.926;2022-08-19T04:14:34;8.05;;;5.10;;
65238;SDS011;51827;51.186;6.926;2022-08-19T04:15:40;7.85;;;4.93;;
65238;SDS011;51827;51.186;6.926;2022-08-19T04:16:42;8.25;;;5.05;;
65238;SDS011;51827;51.186;6.926;2022-08-19T04:17:43;6.80;;;5.43;;
65238;SDS011;51827;51.186;6.926;2022-08-19T04:18:43;6.80;;;5.10;;
65238;SDS011;51827;51.186;6.926;2022-08-19T04:19:43;7.68;;;5.22;;
65238;SDS011;51827;51.186;6.926;2022-08-19T04:20:47;8.47;;;5.40;;
65238;SDS011;51827;51.186;6.926;2022-08-19T04:21:48;6.50;;;5.03;;
65238;SDS011;51827;51.186;6.926;2022-08-19T04:22:50;7.72;;;5.13;;
65238;SDS011;51827;51.186;6.926;2022-08-19T04:23:50;5.70;;;4.80;;
65238;SDS011;51827;51.186;6.926;2022-08-19T04:24:51;7.63;;;5.30;;
65238;SDS011;51827;51.186;6.926;2022-08-19T04:25:51;8.73;;;4.97;;
65238;SDS011;51827;51.186;6.926;2022-08-19T04:26:58;6.50;;;4.70;;
65238;SDS011;51827;51.186;6.926;2022-08-19T04:27:59;6.65;;;5.03;;
65238;SDS011;51827;51.186;6.926;2022-08-19T04:29:00;7.10;;;5.10;;
65238;SDS011;51827;51.186;6.926;2022-08-19T04:30:03;6.97;;;5.20;;
65238;SDS011;51827;51.186;6.926;2022-08-19T04:31:04;10.00;;;5.18;;
65238;SDS011;51827;51.186;6.926;2022-08-19T04:32:04;8.07;;;5.07;;
65238;SDS011;51827;51.186;6.926;2022-08-19T04:33:04;7.13;;;5.03;;
65238;SDS011;51827;51.186;6.926;2022-08-19T04:34:09;9.87;;;5.47;;
65238;SDS011;51827;51.186;6.926;2022-08-19T04:35:10;6.43;;;4.90;;
65238;SDS011;51827;51.186;6.926;2022-08-19T04:36:17;8.17;;;4.97;;
65238;SDS011;51827;51.186;6.926;2022-08-19T04:37:22;7.53;;;4.90;;
65238;SDS011;51827;51.186;6.926;2022-08-19T04:38:25;7.47;;;4.80;;
65238;SDS011;51827;51.186;6.926;2022-08-19T04:39:29;6.17;;;4.73;;
65238;SDS011;51827;51.186;6.926;2022-08-19T04:40:30;6.53;;;5.00;;
65238;SDS011;51827;51.186;6.926;2022-08-19T04:41:30;11.27;;;4.63;;
65238;SDS011;51827;51.186;6.926;2022-08-19T04:43:35;6.30;;;4.85;;
65238;SDS011;51827;51.186;6.926;2022-08-19T04:44:37;6.68;;;4.70;;
65238;SDS011;51827;51.186;6.926;2022-08-19T04:45:37;7.27;;;4.87;;
65238;SDS011;51827;51.186;6.926;2022-08-19T04:46:38;6.23;;;5.20;;
65238;SDS011;51827;51.186;6.926;2022-08-19T04:47:39;6.57;;;4.53;;
65238;SDS011;51827;51.186;6.926;2022-08-19T04:48:44;8.00;;;5.13;;
65238;SDS011;51827;51.186;6.926;2022-08-19T04:49:44;8.52;;;5.00;;
65238;SDS011;51827;51.186;6.926;2022-08-19T04:50:45;6.80;;;5.17;;
65238;SDS011;51827;51.186;6.926;2022-08-19T04:51:46;7.35;;;5.00;;
65238;SDS011;51827;51.186;6.926;2022-08-19T04:52:46;8.90;;;5.60;;
65238;SDS011;51827;51.186;6.926;2022-08-19T04:53:50;7.97;;;4.95;;
65238;SDS011;51827;51.186;6.926;2022-08-19T04:54:51;7.03;;;5.20;;
65238;SDS011;51827;51.186;6.926;2022-08-19T04:55:51;9.43;;;5.23;;
65238;SDS011;51827;51.186;6.926;2022-08-19T04:56:52;9.00;;;4.93;;
65238;SDS011;51827;51.186;6.926;2022-08-19T04:57:54;9.00;;;5.63;;
65238;SDS011;51827;51.186;6.926;2022-08-19T04:58:55;11.13;;;5.40;;
65238;SDS011;51827;51.186;6.926;2022-08-19T04:59:58;6.40;;;4.60;;
65238;SDS011;51827;51.186;6.926;2022-08-19T05:00:59;7.57;;;5.07;;
65238;SDS011;51827;51.186;6.926;2022-08-19T05:01:59;8.18;;;5.40;;
65238;SDS011;51827;51.186;6.926;2022-08-19T05:02:59;9.03;;;5.47;;
65238;SDS011;51827;51.186;6.926;2022-08-19T05:04:00;6.90;;;4.97;;
65238;SDS011;51827;51.186;6.926;2022-08-19T05:05:02;7.63;;;5.63;;
65238;SDS011;51827;51.186;6.926;2022-08-19T05:06:06;9.05;;;6.38;;
65238;SDS011;51827;51.186;6.926;2022-08-19T05:07:07;8.77;;;5.28;;
65238;SDS011;51827;51.186;6.926;2022-08-19T05:08:08;7.35;;;4.90;;
65238;SDS011;51827;51.186;6.926;2022-08-19T05:09:20;8.85;;;5.78;;
65238;SDS011;51827;51.186;6.926;2022-08-19T05:10:20;10.93;;;6.63;;
65238;SDS011;51827;51.186;6.926;2022-08-19T05:11:22;10.67;;;6.73;;
65238;SDS011;51827;51.186;6.926;2022-08-19T05:12:24;9.82;;;6.50;;
65238;SDS011;51827;51.186;6.926;2022-08-19T05:13:25;11.02;;;6.65;;
65238;SDS011;51827;51.186;6.926;2022-08-19T05:14:25;11.57;;;6.20;;
65238;SDS011;51827;51.186;6.926;2022-08-19T05:15:28;9.35;;;6.10;;
65238;SDS011;51827;51.186;6.926;2022-08-19T05:16:28;13.23;;;6.20;;
65238;SDS011;51827;51.186;6.926;2022-08-19T05:17:29;8.17;;;5.53;;
65238;SDS011;51827;51.186;6.926;2022-08-19T05:18:29;9.27;;;5.80;;
65238;SDS011;51827;51.186;6.926;2022-08-19T05:19:29;12.43;;;6.50;;
65238;SDS011;51827;51.186;6.926;2022-08-19T05:20:30;7.70;;;6.20;;
65238;SDS011;51827;51.186;6.926;2022-08-19T05:21:30;9.40;;;6.50;;
65238;SDS011;51827;51.186;6.926;2022-08-19T05:22:31;10.05;;;6.57;;
65238;SDS011;51827;51.186;6.926;2022-08-19T05:23:31;8.73;;;6.77;;
65238;SDS011;51827;51.186;6.926;2022-08-19T05:24:32;9.03;;;6.30;;
65238;SDS011;51827;51.186;6.926;2022-08-19T05:25:32;9.07;;;6.68;;
65238;SDS011;51827;51.186;6.926;2022-08-19T05:26:32;10.50;;;6.73;;
65238;SDS011;51827;51.186;6.926;2022-08-19T05:27:33;10.07;;;6.30;;
65238;SDS011;51827;51.186;6.926;2022-08-19T05:28:33;8.93;;;6.97;;
65238;SDS011;51827;51.186;6.926;2022-08-19T05:29:34;8.77;;;7.00;;
65238;SDS011;51827;51.186;6.926;2022-08-19T05:30:43;9.98;;;7.18;;
65238;SDS011;51827;51.186;6.926;2022-08-19T05:31:43;12.20;;;7.35;;
65238;SDS011;51827;51.186;6.926;2022-08-19T05:33:45;13.33;;;6.93;;
65238;SDS011;51827;51.186;6.926;2022-08-19T05:34:45;12.15;;;7.15;;
65238;SDS011;51827;51.186;6.926;2022-08-19T05:35:46;11.63;;;6.90;;
65238;SDS011;51827;51.186;6.926;2022-08-19T05:37:10;11.70;;;6.88;;
65238;SDS011;51827;51.186;6.926;2022-08-19T05:38:10;8.65;;;6.70;;
65238;SDS011;51827;51.186;6.926;2022-08-19T05:39:11;9.00;;;6.32;;
65238;SDS011;51827;51.186;6.926;2022-08-19T05:40:14;12.27;;;6.70;;
65238;SDS011;51827;51.186;6.926;2022-08-19T05:41:14;10.63;;;6.93;;
65238;SDS011;51827;51.186;6.926;2022-08-19T05:42:17;9.65;;;5.85;;
65238;SDS011;51827;51.186;6.926;2022-08-19T05:43:21;10.52;;;6.47;;
65238;SDS011;51827;51.186;6.926;2022-08-19T05:44:21;9.75;;;6.13;;
65238;SDS011;51827;51.186;6.926;2022-08-19T05:45:21;8.23;;;6.00;;
65238;SDS011;51827;51.186;6.926;2022-08-19T05:46:22;9.43;;;6.07;;
65238;SDS011;51827;51.186;6.926;2022-08-19T05:47:22;8.25;;;6.18;;
65238;SDS011;51827;51.186;6.926;2022-08-19T05:48:22;7.67;;;5.73;;
65238;SDS011;51827;51.186;6.926;2022-08-19T05:49:23;11.20;;;6.00;;
65238;SDS011;51827;51.186;6.926;2022-08-19T05:50:24;8.48;;;5.95;;
65238;SDS011;51827;51.186;6.926;2022-08-19T05:51:24;8.82;;;6.30;;
65238;SDS011;51827;51.186;6.926;2022-08-19T05:52:25;14.13;;;6.00;;
65238;SDS011;51827;51.186;6.926;2022-08-19T05:53:25;8.40;;;5.83;;
65238;SDS011;51827;51.186;6.926;2022-08-19T05:54:28;8.20;;;6.00;;
65238;SDS011;51827;51.186;6.926;2022-08-19T05:55:35;10.43;;;5.95;;
65238;SDS011;51827;51.186;6.926;2022-08-19T05:56:35;8.73;;;6.18;;
65238;SDS011;51827;51.186;6.926;2022-08-19T05:57:35;9.67;;;5.57;;
65238;SDS011;51827;51.186;6.926;2022-08-19T05:58:36;7.07;;;5.53;;
65238;SDS011;51827;51.186;6.926;2022-08-19T05:59:37;9.23;;;5.45;;
65238;SDS011;51827;51.186;6.926;2022-08-19T06:00:37;10.90;;;5.33;;
65238;SDS011;51827;51.186;6.926;2022-08-19T06:01:41;7.47;;;5.83;;
65238;SDS011;51827;51.186;6.926;2022-08-19T06:02:45;9.85;;;5.68;;
65238;SDS011;51827;51.186;6.926;2022-08-19T06:03:45;7.03;;;5.47;;
65238;SDS011;51827;51.186;6.926;2022-08-19T06:04:45;8.38;;;6.00;;
65238;SDS011;51827;51.186;6.926;2022-08-19T06:05:48;9.18;;;6.15;;
65238;SDS011;51827;51.186;6.926;2022-08-19T06:06:49;7.63;;;5.63;;
65238;SDS011;51827;51.186;6.926;2022-08-19T06:07:51;7.43;;;5.70;;
65238;SDS011;51827;51.186;6.926;2022-08-19T06:08:54;8.53;;;6.00;;
65238;SDS011;51827;51.186;6.926;2022-08-19T06:10:05;7.70;;;5.88;;
65238;SDS011;51827;51.186;6.926;2022-08-19T06:12:24;7.85;;;5.63;;
65238;SDS011;51827;51.186;6.926;2022-08-19T06:13:24;9.07;;;5.85;;
65238;SDS011;51827;51.186;6.926;2022-08-19T06:14:30;9.73;;;6.00;;
65238;SDS011;51827;51.186;6.926;2022-08-19T06:15:31;8.93;;;5.80;;
65238;SDS011;51827;51.186;6.926;2022-08-19T06:16:32;6.73;;;5.83;;
65238;SDS011;51827;51.186;6.926;2022-08-19T06:17:32;11.23;;;6.87;;
65238;SDS011;51827;51.186;6.926;2022-08-19T06:18:32;10.35;;;6.80;;
65238;SDS011;51827;51.186;6.926;2022-08-19T06:19:41;7.50;;;6.47;;
65238;SDS011;51827;51.186;6.926;2022-08-19T06:20:51;9.57;;;7.22;;
65238;SDS011;51827;51.186;6.926;2022-08-19T06:21:51;8.37;;;6.70;;
65238;SDS011;51827;51.186;6.926;2022-08-19T06:22:52;11.43;;;6.97;;